sensor_id;sensor_type;location;lat;lon;timestamp;P1;durP1;ratioP1;P2;durP2;ratioP2
77701;SDS011;66868;42.708;23.404;2023-06-19T00:01:40;9.25;;;8.35;;
77701;SDS011;66868;42.708;23.404;2023-06-19T00:04:06;8.40;;;7.60;;
77701;SDS011;66868;42.708;23.404;2023-06-19T00:06:31;8.80;;;8.10;;
77701;SDS011;66868;42.708;23.404;2023-06-19T00:08:56;9.77;;;8.65;;
77701;SDS011;66868;42.708;23.404;2023-06-19T00:11:22;8.45;;;7.82;;
77701;SDS011;66868;42.708;23.404;2023-06-19T00:13:47;9.45;;;8.65;;
77701;SDS011;66868;42.708;23.404;2023-06-19T00:16:12;10.55;;;9.65;;
77701;SDS011;66868;42.708;23.404;2023-06-19T00:18:38;10.85;;;9.77;;
77701;SDS011;66868;42.708;23.404;2023-06-19T00:21:05;15.95;;;9.15;;
77701;SDS011;66868;42.708;23.404;2023-06-19T00:23:33;10.52;;;8.52;;
77701;SDS011;66868;42.708;23.404;2023-06-19T00:26:00;9.70;;;8.80;;
77701;SDS011;66868;42.708;23.404;2023-06-19T00:28:29;9.50;;;8.57;;
77701;SDS011;66868;42.708;23.404;2023-06-19T00:30:55;12.25;;;9.63;;
77701;SDS011;66868;42.708;23.404;2023-06-19T00:33:21;10.48;;;9.27;;
77701;SDS011;66868;42.708;23.404;2023-06-19T00:35:46;12.10;;;9.30;;
77701;SDS011;66868;42.708;23.404;2023-06-19T00:38:13;13.68;;;10.95;;
77701;SDS011;66868;42.708;23.404;2023-06-19T00:40:38;12.98;;;10.13;;
77701;SDS011;66868;42.708;23.404;2023-06-19T00:43:04;12.55;;;11.15;;
77701;SDS011;66868;42.708;23.404;2023-06-19T00:45:31;11.00;;;9.95;;
77701;SDS011;66868;42.708;23.404;2023-06-19T00:47:57;14.80;;;10.23;;
77701;SDS011;66868;42.708;23.404;2023-06-19T00:50:24;10.32;;;9.25;;
77701;SDS011;66868;42.708;23.404;2023-06-19T00:52:49;15.18;;;10.40;;
77701;SDS011;66868;42.708;23.404;2023-06-19T00:55:16;13.20;;;9.68;;
77701;SDS011;66868;42.708;23.404;2023-06-19T00:57:42;13.35;;;10.82;;
77701;SDS011;66868;42.708;23.404;2023-06-19T01:00:08;11.38;;;9.13;;
77701;SDS011;66868;42.708;23.404;2023-06-19T01:02:36;9.40;;;8.65;;
77701;SDS011;66868;42.708;23.404;2023-06-19T01:05:02;12.27;;;10.07;;
77701;SDS011;66868;42.708;23.404;2023-06-19T01:09:59;11.48;;;10.18;;
77701;SDS011;66868;42.708;23.404;2023-06-19T01:12:37;12.48;;;10.23;;
77701;SDS011;66868;42.708;23.404;2023-06-19T01:15:05;11.48;;;9.90;;
77701;SDS011;66868;42.708;23.404;2023-06-19T01:17:33;16.98;;;10.70;;
77701;SDS011;66868;42.708;23.404;2023-06-19T01:20:00;13.30;;;10.27;;
77701;SDS011;66868;42.708;23.404;2023-06-19T01:22:36;12.93;;;10.02;;
77701;SDS011;66868;42.708;23.404;2023-06-19T01:25:02;13.68;;;11.07;;
77701;SDS011;66868;42.708;23.404;2023-06-19T01:27:31;12.98;;;10.05;;
77701;SDS011;66868;42.708;23.404;2023-06-19T01:29:57;13.57;;;10.05;;
77701;SDS011;66868;42.708;23.404;2023-06-19T01:34:55;11.70;;;8.98;;
77701;SDS011;66868;42.708;23.404;2023-06-19T01:37:24;12.02;;;8.90;;
77701;SDS011;66868;42.708;23.404;2023-06-19T01:39:52;9.73;;;8.75;;
77701;SDS011;66868;42.708;23.404;2023-06-19T01:42:22;20.15;;;10.13;;
77701;SDS011;66868;42.708;23.404;2023-06-19T01:44:48;11.82;;;8.93;;
77701;SDS011;66868;42.708;23.404;2023-06-19T01:47:14;12.80;;;9.10;;
77701;SDS011;66868;42.708;23.404;2023-06-19T01:49:44;11.88;;;9.35;;
77701;SDS011;66868;42.708;23.404;2023-06-19T01:52:13;13.75;;;9.07;;
77701;SDS011;66868;42.708;23.404;2023-06-19T01:54:39;9.82;;;9.02;;
77701;SDS011;66868;42.708;23.404;2023-06-19T01:57:05;14.13;;;9.35;;
77701;SDS011;66868;42.708;23.404;2023-06-19T01:59:30;12.88;;;11.30;;
77701;SDS011;66868;42.708;23.404;2023-06-19T02:01:56;12.75;;;10.30;;
77701;SDS011;66868;42.708;23.404;2023-06-19T02:04:21;16.13;;;10.25;;
77701;SDS011;66868;42.708;23.404;2023-06-19T02:06:46;10.77;;;9.77;;
77701;SDS011;66868;42.708;23.404;2023-06-19T02:09:12;10.68;;;9.55;;
77701;SDS011;66868;42.708;23.404;2023-06-19T02:11:37;12.40;;;9.10;;
77701;SDS011;66868;42.708;23.404;2023-06-19T02:14:03;11.48;;;9.48;;
77701;SDS011;66868;42.708;23.404;2023-06-19T02:16:28;11.73;;;10.13;;
77701;SDS011;66868;42.708;23.404;2023-06-19T02:18:54;14.05;;;10.52;;
77701;SDS011;66868;42.708;23.404;2023-06-19T02:21:20;11.10;;;10.00;;
77701;SDS011;66868;42.708;23.404;2023-06-19T02:23:45;11.68;;;9.60;;
77701;SDS011;66868;42.708;23.404;2023-06-19T02:26:11;11.45;;;8.65;;
77701;SDS011;66868;42.708;23.404;2023-06-19T02:28:36;12.32;;;9.75;;
77701;SDS011;66868;42.708;23.404;2023-06-19T02:31:02;16.35;;;9.32;;
77701;SDS011;66868;42.708;23.404;2023-06-19T02:33:27;15.93;;;9.07;;
77701;SDS011;66868;42.708;23.404;2023-06-19T02:35:53;14.18;;;10.20;;
77701;SDS011;66868;42.708;23.404;2023-06-19T02:38:24;17.23;;;9.13;;
77701;SDS011;66868;42.708;23.404;2023-06-19T02:40:54;10.00;;;9.13;;
77701;SDS011;66868;42.708;23.404;2023-06-19T02:43:22;10.15;;;9.13;;
77701;SDS011;66868;42.708;23.404;2023-06-19T02:45:47;12.18;;;9.95;;
77701;SDS011;66868;42.708;23.404;2023-06-19T02:48:13;14.70;;;10.05;;
77701;SDS011;66868;42.708;23.404;2023-06-19T02:50:38;11.50;;;10.30;;
77701;SDS011;66868;42.708;23.404;2023-06-19T02:53:04;13.23;;;10.38;;
77701;SDS011;66868;42.708;23.404;2023-06-19T02:55:29;13.25;;;11.65;;
77701;SDS011;66868;42.708;23.404;2023-06-19T02:57:54;22.50;;;15.90;;
77701;SDS011;66868;42.708;23.404;2023-06-19T03:00:20;18.17;;;13.48;;
77701;SDS011;66868;42.708;23.404;2023-06-19T03:02:45;22.02;;;14.25;;
77701;SDS011;66868;42.708;23.404;2023-06-19T03:05:13;18.13;;;12.98;;
77701;SDS011;66868;42.708;23.404;2023-06-19T03:07:41;23.35;;;14.10;;
77701;SDS011;66868;42.708;23.404;2023-06-19T03:10:07;21.90;;;13.80;;
77701;SDS011;66868;42.708;23.404;2023-06-19T03:12:32;16.05;;;10.63;;
77701;SDS011;66868;42.708;23.404;2023-06-19T03:14:58;11.00;;;9.93;;
77701;SDS011;66868;42.708;23.404;2023-06-19T03:17:23;15.15;;;10.43;;
77701;SDS011;66868;42.708;23.404;2023-06-19T03:19:49;15.05;;;11.05;;
77701;SDS011;66868;42.708;23.404;2023-06-19T03:22:14;25.48;;;10.35;;
77701;SDS011;66868;42.708;23.404;2023-06-19T03:24:39;11.13;;;8.95;;
77701;SDS011;66868;42.708;23.404;2023-06-19T03:27:05;12.82;;;9.52;;
77701;SDS011;66868;42.708;23.404;2023-06-19T03:29:31;14.43;;;10.00;;
77701;SDS011;66868;42.708;23.404;2023-06-19T03:31:56;9.93;;;8.82;;
77701;SDS011;66868;42.708;23.404;2023-06-19T03:34:21;11.48;;;9.30;;
77701;SDS011;66868;42.708;23.404;2023-06-19T03:36:47;11.20;;;10.02;;
77701;SDS011;66868;42.708;23.404;2023-06-19T03:39:12;10.57;;;9.57;;
77701;SDS011;66868;42.708;23.404;2023-06-19T03:41:38;11.27;;;10.18;;
77701;SDS011;66868;42.708;23.404;2023-06-19T03:44:03;18.83;;;10.10;;
77701;SDS011;66868;42.708;23.404;2023-06-19T03:46:29;11.73;;;8.93;;
77701;SDS011;66868;42.708;23.404;2023-06-19T03:48:54;10.40;;;8.88;;
77701;SDS011;66868;42.708;23.404;2023-06-19T03:51:19;11.70;;;9.35;;
77701;SDS011;66868;42.708;23.404;2023-06-19T03:53:45;13.77;;;10.30;;
77701;SDS011;66868;42.708;23.404;2023-06-19T03:56:10;9.95;;;9.05;;
77701;SDS011;66868;42.708;23.404;2023-06-19T03:58:35;9.65;;;8.65;;
77701;SDS011;66868;42.708;23.404;2023-06-19T04:01:01;10.65;;;9.38;;
77701;SDS011;66868;42.708;23.404;2023-06-19T04:03:27;10.23;;;8.95;;
77701;SDS011;66868;42.708;23.404;2023-06-19T04:05:52;10.82;;;8.32;;
77701;SDS011;66868;42.708;23.404;2023-06-19T04:08:18;11.20;;;8.48;;
77701;SDS011;66868;42.708;23.404;2023-06-19T04:10:43;11.23;;;9.07;;
77701;SDS011;66868;42.708;23.404;2023-06-19T04:13:09;9.10;;;8.30;;
77701;SDS011;66868;42.708;23.404;2023-06-19T04:15:34;9.70;;;8.77;;
77701;SDS011;66868;42.708;23.404;2023-06-19T04:18:00;8.95;;;8.15;;
77701;SDS011;66868;42.708;23.404;2023-06-19T04:20:26;10.95;;;8.95;;
77701;SDS011;66868;42.708;23.404;2023-06-19T04:22:52;9.68;;;8.50;;
77701;SDS011;66868;42.708;23.404;2023-06-19T04:25:17;14.75;;;9.93;;
77701;SDS011;66868;42.708;23.404;2023-06-19T04:27:43;9.30;;;8.38;;
77701;SDS011;66868;42.708;23.404;2023-06-19T04:30:11;11.07;;;8.90;;
77701;SDS011;66868;42.708;23.404;2023-06-19T04:32:37;14.75;;;9.98;;
77701;SDS011;66868;42.708;23.404;2023-06-19T04:35:05;15.02;;;9.30;;
77701;SDS011;66868;42.708;23.404;2023-06-19T04:37:34;12.93;;;9.18;;
77701;SDS011;66868;42.708;23.404;2023-06-19T04:40:00;12.48;;;9.35;;
77701;SDS011;66868;42.708;23.404;2023-06-19T04:42:26;14.13;;;8.93;;
77701;SDS011;66868;42.708;23.404;2023-06-19T04:44:52;10.95;;;8.48;;
77701;SDS011;66868;42.708;23.404;2023-06-19T04:47:19;9.68;;;7.38;;
77701;SDS011;66868;42.708;23.404;2023-06-19T04:49:45;10.90;;;7.45;;
77701;SDS011;66868;42.708;23.404;2023-06-19T04:52:11;8.10;;;7.32;;
77701;SDS011;66868;42.708;23.404;2023-06-19T04:54:36;9.63;;;6.72;;
77701;SDS011;66868;42.708;23.404;2023-06-19T04:57:02;7.97;;;7.38;;
77701;SDS011;66868;42.708;23.404;2023-06-19T04:59:28;11.27;;;7.68;;
77701;SDS011;66868;42.708;23.404;2023-06-19T05:01:55;15.95;;;7.95;;
77701;SDS011;66868;42.708;23.404;2023-06-19T05:04:20;8.73;;;7.18;;
77701;SDS011;66868;42.708;23.404;2023-06-19T05:06:47;8.38;;;7.53;;
77701;SDS011;66868;42.708;23.404;2023-06-19T05:09:13;8.38;;;7.65;;
77701;SDS011;66868;42.708;23.404;2023-06-19T05:11:38;7.20;;;6.57;;
77701;SDS011;66868;42.708;23.404;2023-06-19T05:14:05;6.85;;;6.35;;
77701;SDS011;66868;42.708;23.404;2023-06-19T05:16:30;7.72;;;7.03;;
77701;SDS011;66868;42.708;23.404;2023-06-19T06:33:13;5.38;;;4.85;;
77701;SDS011;66868;42.708;23.404;2023-06-19T06:35:39;5.40;;;4.97;;
77701;SDS011;66868;42.708;23.404;2023-06-19T06:38:04;4.93;;;4.60;;
77701;SDS011;66868;42.708;23.404;2023-06-19T06:40:30;5.55;;;5.15;;
77701;SDS011;66868;42.708;23.404;2023-06-19T06:42:55;8.63;;;5.97;;
77701;SDS011;66868;42.708;23.404;2023-06-19T06:45:20;10.20;;;5.07;;
77701;SDS011;66868;42.708;23.404;2023-06-19T06:47:47;5.25;;;4.70;;
77701;SDS011;66868;42.708;23.404;2023-06-19T06:50:12;7.47;;;5.22;;
77701;SDS011;66868;42.708;23.404;2023-06-19T06:52:37;6.38;;;5.22;;
77701;SDS011;66868;42.708;23.404;2023-06-19T06:55:04;7.70;;;5.75;;
77701;SDS011;66868;42.708;23.404;2023-06-19T06:57:29;6.38;;;5.35;;
77701;SDS011;66868;42.708;23.404;2023-06-19T06:59:55;5.30;;;4.95;;
77701;SDS011;66868;42.708;23.404;2023-06-19T07:02:20;6.45;;;5.03;;
77701;SDS011;66868;42.708;23.404;2023-06-19T07:04:46;5.80;;;4.85;;
77701;SDS011;66868;42.708;23.404;2023-06-19T07:07:11;11.32;;;5.38;;
77701;SDS011;66868;42.708;23.404;2023-06-19T07:09:37;7.72;;;4.28;;
77701;SDS011;66868;42.708;23.404;2023-06-19T07:12:02;4.95;;;4.60;;
77701;SDS011;66868;42.708;23.404;2023-06-19T07:14:30;5.85;;;4.70;;
77701;SDS011;66868;42.708;23.404;2023-06-19T07:16:55;6.32;;;4.90;;
77701;SDS011;66868;42.708;23.404;2023-06-19T07:19:20;4.78;;;4.38;;
77701;SDS011;66868;42.708;23.404;2023-06-19T07:21:46;12.85;;;5.60;;
77701;SDS011;66868;42.708;23.404;2023-06-19T07:24:12;5.03;;;4.57;;
77701;SDS011;66868;42.708;23.404;2023-06-19T07:26:37;7.57;;;4.82;;
77701;SDS011;66868;42.708;23.404;2023-06-19T07:29:02;10.65;;;4.70;;
77701;SDS011;66868;42.708;23.404;2023-06-19T07:31:28;7.68;;;4.30;;
77701;SDS011;66868;42.708;23.404;2023-06-19T07:33:53;4.35;;;4.05;;
77701;SDS011;66868;42.708;23.404;2023-06-19T07:36:18;4.88;;;4.57;;
77701;SDS011;66868;42.708;23.404;2023-06-19T07:38:44;5.00;;;4.50;;
77701;SDS011;66868;42.708;23.404;2023-06-19T07:41:10;7.78;;;5.10;;
77701;SDS011;66868;42.708;23.404;2023-06-19T07:43:36;4.60;;;4.20;;
77701;SDS011;66868;42.708;23.404;2023-06-19T07:46:02;16.13;;;5.38;;
77701;SDS011;66868;42.708;23.404;2023-06-19T07:48:28;5.47;;;5.13;;
77701;SDS011;66868;42.708;23.404;2023-06-19T07:50:54;5.55;;;5.05;;
77701;SDS011;66868;42.708;23.404;2023-06-19T07:53:20;6.07;;;4.70;;
77701;SDS011;66868;42.708;23.404;2023-06-19T07:55:45;5.80;;;5.15;;
77701;SDS011;66868;42.708;23.404;2023-06-19T07:58:11;4.80;;;4.32;;
77701;SDS011;66868;42.708;23.404;2023-06-19T08:00:36;4.65;;;4.07;;
77701;SDS011;66868;42.708;23.404;2023-06-19T08:03:02;4.50;;;4.20;;
77701;SDS011;66868;42.708;23.404;2023-06-19T08:05:27;7.80;;;4.13;;
77701;SDS011;66868;42.708;23.404;2023-06-19T08:07:56;5.18;;;3.88;;
77701;SDS011;66868;42.708;23.404;2023-06-19T08:10:23;4.68;;;4.38;;
77701;SDS011;66868;42.708;23.404;2023-06-19T08:12:48;5.07;;;4.57;;
77701;SDS011;66868;42.708;23.404;2023-06-19T08:15:14;7.20;;;4.00;;
77701;SDS011;66868;42.708;23.404;2023-06-19T08:17:39;4.57;;;4.28;;
77701;SDS011;66868;42.708;23.404;2023-06-19T08:20:05;4.65;;;3.83;;
77701;SDS011;66868;42.708;23.404;2023-06-19T08:22:32;4.85;;;4.47;;
77701;SDS011;66868;42.708;23.404;2023-06-19T08:24:57;4.53;;;4.22;;
77701;SDS011;66868;42.708;23.404;2023-06-19T08:27:23;4.05;;;3.60;;
77701;SDS011;66868;42.708;23.404;2023-06-19T08:29:48;5.55;;;4.30;;
77701;SDS011;66868;42.708;23.404;2023-06-19T08:32:13;4.10;;;3.80;;
77701;SDS011;66868;42.708;23.404;2023-06-19T08:34:39;4.03;;;3.58;;
77701;SDS011;66868;42.708;23.404;2023-06-19T08:37:05;7.32;;;4.05;;
77701;SDS011;66868;42.708;23.404;2023-06-19T08:39:31;3.58;;;3.28;;
77701;SDS011;66868;42.708;23.404;2023-06-19T08:41:56;3.85;;;3.58;;
77701;SDS011;66868;42.708;23.404;2023-06-19T08:44:22;3.90;;;3.60;;
77701;SDS011;66868;42.708;23.404;2023-06-19T08:46:47;4.43;;;4.03;;
77701;SDS011;66868;42.708;23.404;2023-06-19T08:49:13;4.30;;;3.70;;
77701;SDS011;66868;42.708;23.404;2023-06-19T08:51:39;10.25;;;4.22;;
77701;SDS011;66868;42.708;23.404;2023-06-19T08:54:05;4.32;;;4.05;;
77701;SDS011;66868;42.708;23.404;2023-06-19T08:56:33;8.95;;;4.15;;
77701;SDS011;66868;42.708;23.404;2023-06-19T09:01:35;4.85;;;3.90;;
77701;SDS011;66868;42.708;23.404;2023-06-19T09:04:07;3.63;;;3.40;;
77701;SDS011;66868;42.708;23.404;2023-06-19T09:06:33;4.13;;;3.80;;
77701;SDS011;66868;42.708;23.404;2023-06-19T09:09:04;4.32;;;3.40;;
77701;SDS011;66868;42.708;23.404;2023-06-19T09:11:31;4.47;;;4.10;;
77701;SDS011;66868;42.708;23.404;2023-06-19T09:13:57;8.68;;;3.95;;
77701;SDS011;66868;42.708;23.404;2023-06-19T09:16:23;3.47;;;3.33;;
77701;SDS011;66868;42.708;23.404;2023-06-19T09:18:49;5.50;;;4.15;;
77701;SDS011;66868;42.708;23.404;2023-06-19T09:21:18;5.95;;;4.30;;
77701;SDS011;66868;42.708;23.404;2023-06-19T09:23:46;4.80;;;4.50;;
77701;SDS011;66868;42.708;23.404;2023-06-19T09:26:14;4.38;;;4.07;;
77701;SDS011;66868;42.708;23.404;2023-06-19T09:28:40;7.15;;;4.00;;
77701;SDS011;66868;42.708;23.404;2023-06-19T09:31:07;4.55;;;3.70;;
77701;SDS011;66868;42.708;23.404;2023-06-19T09:33:33;4.20;;;3.80;;
77701;SDS011;66868;42.708;23.404;2023-06-19T09:36:01;4.05;;;3.58;;
77701;SDS011;66868;42.708;23.404;2023-06-19T09:38:28;4.68;;;4.10;;
77701;SDS011;66868;42.708;23.404;2023-06-19T09:40:56;6.18;;;3.80;;
77701;SDS011;66868;42.708;23.404;2023-06-19T09:43:24;3.97;;;3.78;;
77701;SDS011;66868;42.708;23.404;2023-06-19T09:45:51;4.05;;;3.55;;
77701;SDS011;66868;42.708;23.404;2023-06-19T09:48:20;5.05;;;3.70;;
77701;SDS011;66868;42.708;23.404;2023-06-19T09:50:51;8.48;;;3.45;;
77701;SDS011;66868;42.708;23.404;2023-06-19T09:53:20;3.28;;;3.15;;
77701;SDS011;66868;42.708;23.404;2023-06-19T09:55:48;6.60;;;3.63;;
77701;SDS011;66868;42.708;23.404;2023-06-19T09:58:15;5.47;;;3.47;;
77701;SDS011;66868;42.708;23.404;2023-06-19T10:00:45;4.03;;;3.83;;
77701;SDS011;66868;42.708;23.404;2023-06-19T10:03:12;3.78;;;3.47;;
77701;SDS011;66868;42.708;23.404;2023-06-19T10:05:38;5.30;;;3.75;;
77701;SDS011;66868;42.708;23.404;2023-06-19T10:08:03;4.43;;;3.10;;
77701;SDS011;66868;42.708;23.404;2023-06-19T10:10:30;3.80;;;3.70;;
77701;SDS011;66868;42.708;23.404;2023-06-19T10:12:59;6.28;;;5.68;;
77701;SDS011;66868;42.708;23.404;2023-06-19T10:15:39;5.38;;;4.88;;
77701;SDS011;66868;42.708;23.404;2023-06-19T10:18:07;4.00;;;3.60;;
77701;SDS011;66868;42.708;23.404;2023-06-19T10:20:38;4.22;;;3.92;;
77701;SDS011;66868;42.708;23.404;2023-06-19T10:25:35;3.88;;;3.60;;
77701;SDS011;66868;42.708;23.404;2023-06-19T10:30:53;11.30;;;3.65;;
77701;SDS011;66868;42.708;23.404;2023-06-19T10:33:22;4.60;;;3.78;;
77701;SDS011;66868;42.708;23.404;2023-06-19T10:38:48;5.85;;;3.50;;
77701;SDS011;66868;42.708;23.404;2023-06-19T10:41:17;3.42;;;3.33;;
77701;SDS011;66868;42.708;23.404;2023-06-19T10:44:02;4.28;;;4.07;;
77701;SDS011;66868;42.708;23.404;2023-06-19T10:46:30;4.10;;;3.80;;
77701;SDS011;66868;42.708;23.404;2023-06-19T10:48:57;4.20;;;3.60;;
77701;SDS011;66868;42.708;23.404;2023-06-19T10:51:26;3.75;;;3.55;;
77701;SDS011;66868;42.708;23.404;2023-06-19T10:53:53;9.25;;;3.95;;
77701;SDS011;66868;42.708;23.404;2023-06-19T10:56:20;4.75;;;4.25;;
77701;SDS011;66868;42.708;23.404;2023-06-19T10:58:46;4.78;;;4.47;;
77701;SDS011;66868;42.708;23.404;2023-06-19T11:01:11;4.25;;;4.00;;
77701;SDS011;66868;42.708;23.404;2023-06-19T11:03:37;4.22;;;3.47;;
77701;SDS011;66868;42.708;23.404;2023-06-19T11:06:02;3.80;;;3.50;;
77701;SDS011;66868;42.708;23.404;2023-06-19T11:08:28;4.13;;;3.85;;
77701;SDS011;66868;42.708;23.404;2023-06-19T11:10:53;11.98;;;4.80;;
77701;SDS011;66868;42.708;23.404;2023-06-19T11:13:23;4.70;;;4.22;;
77701;SDS011;66868;42.708;23.404;2023-06-19T11:15:48;4.15;;;3.72;;
77701;SDS011;66868;42.708;23.404;2023-06-19T11:18:15;4.22;;;3.80;;
77701;SDS011;66868;42.708;23.404;2023-06-19T11:23:15;5.88;;;3.47;;
77701;SDS011;66868;42.708;23.404;2023-06-19T11:25:41;4.68;;;3.60;;
77701;SDS011;66868;42.708;23.404;2023-06-19T11:28:11;7.28;;;5.75;;
77701;SDS011;66868;42.708;23.404;2023-06-19T11:30:38;6.97;;;6.28;;
77701;SDS011;66868;42.708;23.404;2023-06-19T11:33:14;5.28;;;4.47;;
77701;SDS011;66868;42.708;23.404;2023-06-19T11:35:53;12.38;;;6.35;;
77701;SDS011;66868;42.708;23.404;2023-06-19T11:38:22;6.47;;;5.68;;
77701;SDS011;66868;42.708;23.404;2023-06-19T11:40:51;5.22;;;4.82;;
77701;SDS011;66868;42.708;23.404;2023-06-19T11:43:27;3.65;;;3.40;;
77701;SDS011;66868;42.708;23.404;2023-06-19T11:46:07;4.20;;;4.00;;
77701;SDS011;66868;42.708;23.404;2023-06-19T11:48:35;6.82;;;3.83;;
77701;SDS011;66868;42.708;23.404;2023-06-19T11:51:01;3.85;;;3.72;;
77701;SDS011;66868;42.708;23.404;2023-06-19T11:53:27;3.85;;;3.53;;
77701;SDS011;66868;42.708;23.404;2023-06-19T11:55:52;4.05;;;3.92;;
77701;SDS011;66868;42.708;23.404;2023-06-19T11:58:18;4.30;;;4.03;;
77701;SDS011;66868;42.708;23.404;2023-06-19T12:00:46;4.20;;;3.40;;
77701;SDS011;66868;42.708;23.404;2023-06-19T12:03:12;4.57;;;3.92;;
77701;SDS011;66868;42.708;23.404;2023-06-19T12:05:38;6.70;;;3.45;;
77701;SDS011;66868;42.708;23.404;2023-06-19T12:08:04;3.90;;;3.70;;
77701;SDS011;66868;42.708;23.404;2023-06-19T12:10:30;3.47;;;3.28;;
77701;SDS011;66868;42.708;23.404;2023-06-19T12:12:56;5.68;;;3.78;;
77701;SDS011;66868;42.708;23.404;2023-06-19T12:15:22;4.40;;;4.05;;
77701;SDS011;66868;42.708;23.404;2023-06-19T12:17:48;3.72;;;3.53;;
77701;SDS011;66868;42.708;23.404;2023-06-19T12:20:16;9.80;;;3.83;;
77701;SDS011;66868;42.708;23.404;2023-06-19T12:22:42;5.22;;;3.67;;
77701;SDS011;66868;42.708;23.404;2023-06-19T12:25:07;4.10;;;3.80;;
77701;SDS011;66868;42.708;23.404;2023-06-19T12:27:33;4.63;;;4.07;;
77701;SDS011;66868;42.708;23.404;2023-06-19T12:29:59;3.78;;;3.58;;
77701;SDS011;66868;42.708;23.404;2023-06-19T12:32:24;4.20;;;4.00;;
77701;SDS011;66868;42.708;23.404;2023-06-19T12:34:50;5.05;;;3.75;;
77701;SDS011;66868;42.708;23.404;2023-06-19T12:37:22;4.85;;;3.85;;
77701;SDS011;66868;42.708;23.404;2023-06-19T12:39:47;4.15;;;3.92;;
77701;SDS011;66868;42.708;23.404;2023-06-19T12:42:14;4.25;;;3.85;;
77701;SDS011;66868;42.708;23.404;2023-06-19T12:44:39;4.30;;;3.90;;
77701;SDS011;66868;42.708;23.404;2023-06-19T12:47:08;4.93;;;4.20;;
77701;SDS011;66868;42.708;23.404;2023-06-19T12:49:33;4.30;;;3.92;;
77701;SDS011;66868;42.708;23.404;2023-06-19T12:51:59;5.00;;;4.60;;
77701;SDS011;66868;42.708;23.404;2023-06-19T12:54:25;4.60;;;4.20;;
77701;SDS011;66868;42.708;23.404;2023-06-19T12:56:51;4.30;;;4.10;;
77701;SDS011;66868;42.708;23.404;2023-06-19T12:59:17;4.65;;;4.35;;
77701;SDS011;66868;42.708;23.404;2023-06-19T13:01:42;4.43;;;4.03;;
77701;SDS011;66868;42.708;23.404;2023-06-19T13:04:08;7.28;;;3.90;;
77701;SDS011;66868;42.708;23.404;2023-06-19T13:06:35;3.88;;;3.67;;
77701;SDS011;66868;42.708;23.404;2023-06-19T13:09:01;5.78;;;3.85;;
77701;SDS011;66868;42.708;23.404;2023-06-19T13:11:27;6.50;;;3.90;;
77701;SDS011;66868;42.708;23.404;2023-06-19T13:13:55;3.30;;;3.10;;
77701;SDS011;66868;42.708;23.404;2023-06-19T13:16:21;3.80;;;3.55;;
77701;SDS011;66868;42.708;23.404;2023-06-19T13:18:48;3.60;;;3.20;;
77701;SDS011;66868;42.708;23.404;2023-06-19T13:21:13;11.88;;;3.75;;
77701;SDS011;66868;42.708;23.404;2023-06-19T13:23:49;7.53;;;3.85;;
77701;SDS011;66868;42.708;23.404;2023-06-19T13:26:17;3.53;;;3.22;;
77701;SDS011;66868;42.708;23.404;2023-06-19T13:28:42;8.73;;;3.45;;
77701;SDS011;66868;42.708;23.404;2023-06-19T13:31:10;3.88;;;3.50;;
77701;SDS011;66868;42.708;23.404;2023-06-19T13:33:35;4.88;;;3.25;;
77701;SDS011;66868;42.708;23.404;2023-06-19T13:36:01;3.50;;;3.30;;
77701;SDS011;66868;42.708;23.404;2023-06-19T13:38:26;3.55;;;3.25;;
77701;SDS011;66868;42.708;23.404;2023-06-19T13:40:51;3.50;;;3.40;;
77701;SDS011;66868;42.708;23.404;2023-06-19T13:43:17;3.90;;;3.70;;
77701;SDS011;66868;42.708;23.404;2023-06-19T13:45:43;5.80;;;4.32;;
77701;SDS011;66868;42.708;23.404;2023-06-19T13:48:11;4.78;;;4.20;;
77701;SDS011;66868;42.708;23.404;2023-06-19T13:50:48;5.13;;;4.30;;
77701;SDS011;66868;42.708;23.404;2023-06-19T13:53:16;4.32;;;3.67;;
77701;SDS011;66868;42.708;23.404;2023-06-19T13:55:57;3.20;;;2.90;;
77701;SDS011;66868;42.708;23.404;2023-06-19T13:58:22;3.92;;;3.47;;
77701;SDS011;66868;42.708;23.404;2023-06-19T14:00:52;3.75;;;3.50;;
77701;SDS011;66868;42.708;23.404;2023-06-19T14:03:17;5.25;;;3.25;;
77701;SDS011;66868;42.708;23.404;2023-06-19T14:05:43;4.45;;;4.00;;
77701;SDS011;66868;42.708;23.404;2023-06-19T14:08:08;4.80;;;3.90;;
77701;SDS011;66868;42.708;23.404;2023-06-19T14:10:34;3.75;;;3.45;;
77701;SDS011;66868;42.708;23.404;2023-06-19T14:13:00;3.20;;;3.10;;
77701;SDS011;66868;42.708;23.404;2023-06-19T14:15:26;7.28;;;4.22;;
77701;SDS011;66868;42.708;23.404;2023-06-19T14:17:54;6.22;;;3.67;;
77701;SDS011;66868;42.708;23.404;2023-06-19T14:20:22;11.38;;;5.60;;
77701;SDS011;66868;42.708;23.404;2023-06-19T14:22:48;10.18;;;8.65;;
77701;SDS011;66868;42.708;23.404;2023-06-19T14:25:13;4.25;;;4.05;;
77701;SDS011;66868;42.708;23.404;2023-06-19T14:27:39;4.53;;;4.22;;
77701;SDS011;66868;42.708;23.404;2023-06-19T14:30:04;5.72;;;4.25;;
77701;SDS011;66868;42.708;23.404;2023-06-19T14:32:33;4.93;;;4.45;;
77701;SDS011;66868;42.708;23.404;2023-06-19T14:34:58;4.93;;;4.15;;
77701;SDS011;66868;42.708;23.404;2023-06-19T14:37:23;3.55;;;3.35;;
77701;SDS011;66868;42.708;23.404;2023-06-19T14:39:49;4.78;;;4.03;;
77701;SDS011;66868;42.708;23.404;2023-06-19T14:42:14;4.80;;;4.53;;
77701;SDS011;66868;42.708;23.404;2023-06-19T14:44:40;4.22;;;3.95;;
77701;SDS011;66868;42.708;23.404;2023-06-19T14:47:05;6.97;;;4.18;;
77701;SDS011;66868;42.708;23.404;2023-06-19T14:49:30;9.00;;;3.60;;
77701;SDS011;66868;42.708;23.404;2023-06-19T14:51:56;5.53;;;3.90;;
77701;SDS011;66868;42.708;23.404;2023-06-19T14:54:22;3.80;;;3.60;;
77701;SDS011;66868;42.708;23.404;2023-06-19T14:56:47;3.20;;;3.10;;
77701;SDS011;66868;42.708;23.404;2023-06-19T14:59:14;3.40;;;3.20;;
77701;SDS011;66868;42.708;23.404;2023-06-19T15:01:43;4.35;;;4.03;;
77701;SDS011;66868;42.708;23.404;2023-06-19T15:04:09;4.82;;;4.10;;
77701;SDS011;66868;42.708;23.404;2023-06-19T15:06:34;5.28;;;4.22;;
77701;SDS011;66868;42.708;23.404;2023-06-19T15:09:00;4.25;;;3.75;;
77701;SDS011;66868;42.708;23.404;2023-06-19T15:11:25;4.60;;;4.30;;
77701;SDS011;66868;42.708;23.404;2023-06-19T15:13:50;6.50;;;4.15;;
77701;SDS011;66868;42.708;23.404;2023-06-19T15:16:16;4.85;;;4.35;;
77701;SDS011;66868;42.708;23.404;2023-06-19T15:18:42;7.40;;;4.03;;
77701;SDS011;66868;42.708;23.404;2023-06-19T15:21:08;6.47;;;3.85;;
77701;SDS011;66868;42.708;23.404;2023-06-19T15:23:33;5.32;;;4.38;;
77701;SDS011;66868;42.708;23.404;2023-06-19T15:25:59;9.75;;;4.57;;
77701;SDS011;66868;42.708;23.404;2023-06-19T15:28:24;4.90;;;4.18;;
77701;SDS011;66868;42.708;23.404;2023-06-19T15:30:50;6.13;;;3.78;;
77701;SDS011;66868;42.708;23.404;2023-06-19T15:33:19;8.98;;;3.72;;
77701;SDS011;66868;42.708;23.404;2023-06-19T15:35:44;4.07;;;3.78;;
77701;SDS011;66868;42.708;23.404;2023-06-19T15:38:10;6.15;;;4.07;;
77701;SDS011;66868;42.708;23.404;2023-06-19T15:40:35;4.90;;;4.40;;
77701;SDS011;66868;42.708;23.404;2023-06-19T15:43:02;4.95;;;3.50;;
77701;SDS011;66868;42.708;23.404;2023-06-19T15:45:27;4.18;;;3.90;;
77701;SDS011;66868;42.708;23.404;2023-06-19T15:47:53;3.60;;;3.47;;
77701;SDS011;66868;42.708;23.404;2023-06-19T15:50:18;7.50;;;3.95;;
77701;SDS011;66868;42.708;23.404;2023-06-19T15:52:43;4.45;;;3.88;;
77701;SDS011;66868;42.708;23.404;2023-06-19T15:55:09;5.97;;;3.53;;
77701;SDS011;66868;42.708;23.404;2023-06-19T15:57:34;6.18;;;4.32;;